createdAt,value
2024-03-10T00:00:08.697Z,986.14
2024-03-10T00:01:08.705Z,986.12
2024-03-10T00:02:08.766Z,986.16
2024-03-10T00:03:08.775Z,986.24
2024-03-10T00:04:08.719Z,986.20
2024-03-10T00:05:08.690Z,986.24
2024-03-10T00:06:08.650Z,986.26
2024-03-10T00:07:08.644Z,986.30
2024-03-10T00:08:08.651Z,986.22
2024-03-10T00:09:08.588Z,986.30
2024-03-10T00:10:08.577Z,986.27
2024-03-10T00:11:08.608Z,986.22
2024-03-10T00:12:08.610Z,986.25
2024-03-10T00:13:08.554Z,986.20
2024-03-10T00:14:08.700Z,986.22
2024-03-10T00:15:08.544Z,986.27
2024-03-10T00:16:08.501Z,986.25
2024-03-10T00:17:08.623Z,986.18
2024-03-10T00:18:08.518Z,986.19
2024-03-10T00:19:08.456Z,986.23
2024-03-10T00:20:08.509Z,986.20
2024-03-10T00:21:08.438Z,986.17
2024-03-10T00:22:08.443Z,986.21
2024-03-10T00:23:08.461Z,986.21
2024-03-10T00:24:08.432Z,986.20
2024-03-10T00:25:08.408Z,986.25
2024-03-10T00:26:08.493Z,986.16
2024-03-10T00:27:08.357Z,986.27
2024-03-10T00:28:08.353Z,986.20
2024-03-10T00:29:10.813Z,986.26
2024-03-10T00:30:08.324Z,986.26
2024-03-10T00:31:08.405Z,986.21
2024-03-10T00:32:08.396Z,986.22
2024-03-10T00:33:08.318Z,986.20
2024-03-10T00:34:08.253Z,986.21
2024-03-10T00:35:08.375Z,986.23
2024-03-10T00:36:08.241Z,986.16
2024-03-10T00:37:08.245Z,986.21
2024-03-10T00:38:08.247Z,986.16
2024-03-10T00:39:08.193Z,986.15
2024-03-10T00:40:08.195Z,986.13
2024-03-10T00:41:08.214Z,986.14
2024-03-10T00:42:08.204Z,986.10
2024-03-10T00:43:08.156Z,986.07
2024-03-10T00:44:08.174Z,986.08
2024-03-10T00:45:08.161Z,986.07
2024-03-10T00:46:08.104Z,986.01
2024-03-10T00:47:09.912Z,986.02
2024-03-10T00:48:08.164Z,986.08
2024-03-10T00:49:08.101Z,986.04
2024-03-10T00:50:08.100Z,986.00
2024-03-10T00:51:08.105Z,985.97
2024-03-10T00:52:08.042Z,986.02
2024-03-10T00:53:08.176Z,986.08
2024-03-10T00:54:08.039Z,986.01
2024-03-10T00:55:08.206Z,986.00
2024-03-10T00:56:07.997Z,985.98
2024-03-10T00:57:07.963Z,986.06
2024-03-10T00:58:07.965Z,986.10
2024-03-10T00:59:08.043Z,986.15
2024-03-10T01:00:07.922Z,986.10
2024-03-10T01:01:07.979Z,986.13
2024-03-10T01:02:07.924Z,986.22
2024-03-10T01:03:07.914Z,986.12
2024-03-10T01:04:07.910Z,986.11
2024-03-10T01:05:07.950Z,986.16
2024-03-10T01:06:07.835Z,986.11
2024-03-10T01:07:07.868Z,986.17
2024-03-10T01:08:07.851Z,986.12
2024-03-10T01:09:07.850Z,986.13
2024-03-10T01:10:07.832Z,986.09
2024-03-10T01:11:07.902Z,986.02
2024-03-10T01:12:07.794Z,986.02
2024-03-10T01:13:07.755Z,986.09
2024-03-10T01:14:07.802Z,986.06
2024-03-10T01:15:07.797Z,986.14
2024-03-10T01:16:07.715Z,986.14
2024-03-10T01:17:07.724Z,986.12
2024-03-10T01:18:07.753Z,986.11
2024-03-10T01:19:07.699Z,986.10
2024-03-10T01:20:08.066Z,986.07
2024-03-10T01:21:07.656Z,986.11
2024-03-10T01:22:07.652Z,986.05
2024-03-10T01:23:07.665Z,986.10
2024-03-10T01:24:08.234Z,986.14
2024-03-10T01:25:07.597Z,986.06
2024-03-10T01:26:07.669Z,986.11
2024-03-10T01:27:07.565Z,986.11
2024-03-10T01:28:07.568Z,986.12
2024-03-10T01:29:07.612Z,986.02
2024-03-10T01:30:07.563Z,986.05
2024-03-10T01:31:07.578Z,986.00
2024-03-10T01:32:07.609Z,985.98
2024-03-10T01:33:07.554Z,986.01
2024-03-10T01:34:07.511Z,986.04
2024-03-10T01:35:07.842Z,985.95
2024-03-10T01:36:07.470Z,985.91
2024-03-10T01:37:07.433Z,985.92
2024-03-10T01:38:07.521Z,985.98
2024-03-10T01:39:07.437Z,985.90
2024-03-10T01:40:07.457Z,985.87
2024-03-10T01:41:07.450Z,985.90
2024-03-10T01:42:07.442Z,985.90
2024-03-10T01:43:07.471Z,985.80
2024-03-10T01:44:07.507Z,985.79
2024-03-10T01:45:07.475Z,985.81
2024-03-10T01:46:07.360Z,985.66
2024-03-10T01:47:07.366Z,985.75
2024-03-10T01:48:07.367Z,985.73
2024-03-10T01:49:07.349Z,985.73
2024-03-10T01:50:07.516Z,985.75
2024-03-10T01:51:07.301Z,985.69
2024-03-10T01:52:07.312Z,985.71
2024-03-10T01:53:07.254Z,985.76
2024-03-10T01:54:07.243Z,985.63
2024-03-10T01:55:07.244Z,985.71
2024-03-10T01:56:07.298Z,985.72
2024-03-10T01:57:07.211Z,985.76
2024-03-10T01:58:07.179Z,985.77
2024-03-10T01:59:07.215Z,985.72
2024-03-10T02:00:07.192Z,985.78
2024-03-10T02:01:07.213Z,985.73
2024-03-10T02:02:07.156Z,985.73
2024-03-10T02:03:07.105Z,985.73
2024-03-10T02:04:07.123Z,985.74
2024-03-10T02:05:07.198Z,985.72
2024-03-10T02:06:07.093Z,985.65
2024-03-10T02:07:07.332Z,985.66
2024-03-10T02:08:07.053Z,985.67
2024-03-10T02:09:07.036Z,985.64
2024-03-10T02:10:07.009Z,985.61
2024-03-10T02:11:07.124Z,985.61
2024-03-10T02:12:07.319Z,985.62
2024-03-10T02:13:07.003Z,985.64
2024-03-10T02:14:07.014Z,985.66
2024-03-10T02:15:06.948Z,985.62
2024-03-10T02:16:06.962Z,985.63
2024-03-10T02:17:07.005Z,985.62
2024-03-10T02:18:06.959Z,985.60
2024-03-10T02:19:06.917Z,985.62
2024-03-10T02:20:06.892Z,985.59
2024-03-10T02:21:06.887Z,985.70
2024-03-10T02:22:06.928Z,985.64
2024-03-10T02:23:06.865Z,985.56
2024-03-10T02:24:06.828Z,985.56
2024-03-10T02:25:06.874Z,985.59
2024-03-10T02:26:06.857Z,985.54
2024-03-10T02:27:06.826Z,985.51
2024-03-10T02:28:06.830Z,985.41
2024-03-10T02:29:06.800Z,985.45
2024-03-10T02:30:06.772Z,985.39
2024-03-10T02:31:06.781Z,985.43
2024-03-10T02:32:06.809Z,985.33
2024-03-10T02:33:06.903Z,985.30
2024-03-10T02:34:06.697Z,985.34
2024-03-10T02:35:07.003Z,985.28
2024-03-10T02:36:06.689Z,985.31
2024-03-10T02:37:06.697Z,985.31
2024-03-10T02:38:06.816Z,985.26
2024-03-10T02:39:06.630Z,985.23
2024-03-10T02:40:06.629Z,985.25
2024-03-10T02:41:06.749Z,985.27
2024-03-10T02:42:06.640Z,985.21
2024-03-10T02:43:06.636Z,985.23
2024-03-10T02:44:06.608Z,985.14
2024-03-10T02:45:06.571Z,985.18
2024-03-10T02:46:06.584Z,985.18
2024-03-10T02:47:06.600Z,985.15
2024-03-10T02:48:06.559Z,985.14
2024-03-10T02:49:06.526Z,985.11
2024-03-10T02:50:06.494Z,985.11
2024-03-10T02:51:06.478Z,985.13
2024-03-10T02:52:06.494Z,985.07
2024-03-10T02:53:06.478Z,985.10
2024-03-10T02:54:06.469Z,985.06
2024-03-10T02:55:06.453Z,985.08
2024-03-10T02:56:06.442Z,985.08
2024-03-10T02:57:06.421Z,985.07
2024-03-10T02:58:06.422Z,984.97
2024-03-10T02:59:06.448Z,985.02
2024-03-10T03:00:06.438Z,984.99
2024-03-10T03:01:06.408Z,984.90
2024-03-10T03:02:06.405Z,984.99
2024-03-10T03:03:06.332Z,984.86
2024-03-10T03:04:06.320Z,984.88
2024-03-10T03:05:06.332Z,984.83
2024-03-10T03:06:06.308Z,984.84
2024-03-10T03:07:06.290Z,984.87
2024-03-10T03:08:06.349Z,984.80
2024-03-10T03:09:06.270Z,984.89
2024-03-10T03:10:06.232Z,984.81
2024-03-10T03:11:06.262Z,984.83
2024-03-10T03:12:06.262Z,984.86
2024-03-10T03:13:06.192Z,984.89
2024-03-10T03:14:06.225Z,984.81
2024-03-10T03:15:06.206Z,984.89
2024-03-10T03:16:06.190Z,984.86
2024-03-10T03:17:06.247Z,984.85
2024-03-10T03:18:06.207Z,984.84
2024-03-10T03:19:06.124Z,984.84
2024-03-10T03:20:06.271Z,984.80
2024-03-10T03:21:06.125Z,984.81
2024-03-10T03:22:06.110Z,984.79
2024-03-10T03:23:06.285Z,984.77
2024-03-10T03:24:06.055Z,984.82
2024-03-10T03:25:06.033Z,984.74
2024-03-10T03:26:06.186Z,984.83
2024-03-10T03:27:06.023Z,984.78
2024-03-10T03:28:06.064Z,984.71
2024-03-10T03:29:06.024Z,984.72
2024-03-10T03:30:06.002Z,984.77
2024-03-10T03:31:05.981Z,984.78
2024-03-10T03:32:05.990Z,984.75
2024-03-10T03:33:05.999Z,984.83
2024-03-10T03:34:05.924Z,984.78
2024-03-10T03:35:05.959Z,984.76
2024-03-10T03:36:05.921Z,984.74
2024-03-10T03:37:05.907Z,984.78
2024-03-10T03:38:05.929Z,984.69
2024-03-10T03:39:05.906Z,984.72
2024-03-10T03:40:05.856Z,984.68
2024-03-10T03:41:05.862Z,984.65
2024-03-10T03:42:05.881Z,984.64
2024-03-10T03:43:05.824Z,984.72
2024-03-10T03:44:05.933Z,984.68
2024-03-10T03:45:05.838Z,984.62
2024-03-10T03:46:05.806Z,984.62
2024-03-10T03:47:05.861Z,984.55
2024-03-10T03:48:05.829Z,984.57
2024-03-10T03:49:05.789Z,984.52
2024-03-10T03:50:06.048Z,984.52
2024-03-10T03:51:05.698Z,984.57
2024-03-10T03:52:05.704Z,984.52
2024-03-10T03:53:05.734Z,984.53
2024-03-10T03:54:05.689Z,984.46
2024-03-10T03:55:05.658Z,984.46
2024-03-10T03:56:05.687Z,984.49
2024-03-10T03:57:05.665Z,984.48
2024-03-10T03:58:05.640Z,984.47
2024-03-10T03:59:05.675Z,984.41
2024-03-10T04:00:05.600Z,984.47
2024-03-10T04:01:05.670Z,984.41
2024-03-10T04:02:05.729Z,984.41
2024-03-10T04:03:05.581Z,984.43
2024-03-10T04:04:05.555Z,984.48
2024-03-10T04:05:05.582Z,984.41
2024-03-10T04:06:05.529Z,984.40
2024-03-10T04:07:05.558Z,984.41
2024-03-10T04:08:05.528Z,984.43
2024-03-10T04:09:05.489Z,984.41
2024-03-10T04:10:05.473Z,984.45
2024-03-10T04:11:05.538Z,984.39
2024-03-10T04:12:05.508Z,984.44
2024-03-10T04:13:05.423Z,984.39
2024-03-10T04:14:05.517Z,984.38
2024-03-10T04:15:05.394Z,984.38
2024-03-10T04:16:05.388Z,984.35
2024-03-10T04:17:05.436Z,984.31
2024-03-10T04:18:05.450Z,984.37
2024-03-10T04:19:05.360Z,984.29
2024-03-10T04:20:05.464Z,984.36
2024-03-10T04:21:05.322Z,984.27
2024-03-10T04:22:05.350Z,984.31
2024-03-10T04:23:05.353Z,984.25
2024-03-10T04:24:05.329Z,984.27
2024-03-10T04:25:05.339Z,984.29
2024-03-10T04:26:05.439Z,984.26
2024-03-10T04:27:05.255Z,984.27
2024-03-10T04:28:05.245Z,984.22
2024-03-10T04:29:05.242Z,984.24
2024-03-10T04:30:05.239Z,984.25
2024-03-10T04:31:05.219Z,984.33
2024-03-10T04:32:05.219Z,984.29
2024-03-10T04:33:05.166Z,984.25
2024-03-10T04:34:05.171Z,984.27
2024-03-10T04:35:05.197Z,984.24
2024-03-10T04:36:05.132Z,984.33
2024-03-10T04:37:05.181Z,984.31
2024-03-10T04:38:05.147Z,984.28
2024-03-10T04:39:05.097Z,984.24
2024-03-10T04:40:05.100Z,984.28
2024-03-10T04:41:05.090Z,984.19
2024-03-10T04:42:05.095Z,984.23
2024-03-10T04:43:05.034Z,984.22
2024-03-10T04:44:05.099Z,984.25
2024-03-10T04:45:05.030Z,984.16
2024-03-10T04:46:05.003Z,984.21
2024-03-10T04:47:05.136Z,984.13
2024-03-10T04:48:05.034Z,984.14
2024-03-10T04:49:04.986Z,984.11
2024-03-10T04:50:05.006Z,984.17
2024-03-10T04:51:04.922Z,984.09
2024-03-10T04:52:04.927Z,984.07
2024-03-10T04:53:04.948Z,984.05
2024-03-10T04:54:04.908Z,984.13
2024-03-10T04:55:04.914Z,984.19
2024-03-10T04:56:04.887Z,984.10
2024-03-10T04:57:04.879Z,984.17
2024-03-10T04:58:04.876Z,984.16
2024-03-10T04:59:04.869Z,984.17
2024-03-10T05:00:04.830Z,984.11
2024-03-10T05:01:04.873Z,984.19
2024-03-10T05:02:04.864Z,984.11
2024-03-10T05:03:04.842Z,984.11
2024-03-10T05:04:04.795Z,984.15
2024-03-10T05:05:04.792Z,984.07
2024-03-10T05:06:04.805Z,984.10
2024-03-10T05:07:04.749Z,984.03
2024-03-10T05:08:04.772Z,984.06
2024-03-10T05:09:04.846Z,984.04
2024-03-10T05:10:04.706Z,984.00
2024-03-10T05:11:04.798Z,983.97
2024-03-10T05:12:04.808Z,983.97
2024-03-10T05:13:04.662Z,983.99
2024-03-10T05:14:04.729Z,983.97
2024-03-10T05:15:04.647Z,984.01
2024-03-10T05:16:04.639Z,983.93
2024-03-10T05:17:04.706Z,983.90
2024-03-10T05:18:04.627Z,983.92
2024-03-10T05:19:04.574Z,983.89
2024-03-10T05:20:04.625Z,983.91
2024-03-10T05:21:04.825Z,983.92
2024-03-10T05:22:04.540Z,983.84
2024-03-10T05:23:04.575Z,983.88
2024-03-10T05:24:04.526Z,983.82
2024-03-10T05:25:04.530Z,983.82
2024-03-10T05:26:04.522Z,983.82
2024-03-10T05:27:04.468Z,983.77
2024-03-10T05:28:04.455Z,983.75
2024-03-10T05:29:04.452Z,983.78
2024-03-10T05:30:04.446Z,983.71
2024-03-10T05:31:04.450Z,983.78
2024-03-10T05:32:04.413Z,983.77
2024-03-10T05:33:04.435Z,983.84
2024-03-10T05:34:04.736Z,983.77
2024-03-10T05:35:04.401Z,983.77
2024-03-10T05:36:04.369Z,983.69
2024-03-10T05:37:04.384Z,983.74
2024-03-10T05:38:04.384Z,983.78
2024-03-10T05:39:04.299Z,983.81
2024-03-10T05:40:04.305Z,983.80
2024-03-10T05:41:04.314Z,983.79
2024-03-10T05:42:04.291Z,983.80
2024-03-10T05:43:04.316Z,983.89
2024-03-10T05:44:04.243Z,983.78
2024-03-10T05:45:04.296Z,983.80
2024-03-10T05:46:04.229Z,983.82
2024-03-10T05:47:04.356Z,983.72
2024-03-10T05:48:04.291Z,983.79
2024-03-10T05:49:04.177Z,983.71
2024-03-10T05:50:04.196Z,983.74
2024-03-10T05:51:04.165Z,983.75
2024-03-10T05:52:04.206Z,983.74
2024-03-10T05:53:04.168Z,983.74
2024-03-10T05:54:04.115Z,983.75
2024-03-10T05:55:04.107Z,983.77
2024-03-10T05:56:04.172Z,983.72
2024-03-10T05:57:04.127Z,983.73
2024-03-10T05:58:04.128Z,983.73
2024-03-10T05:59:04.171Z,983.73
2024-03-10T06:00:04.068Z,983.80
2024-03-10T06:01:04.135Z,983.71
2024-03-10T06:02:04.105Z,983.79
2024-03-10T06:03:04.073Z,983.75
2024-03-10T06:04:04.059Z,983.74
2024-03-10T06:05:04.354Z,983.72
2024-03-10T06:06:03.979Z,983.69
2024-03-10T06:07:04.033Z,983.77
2024-03-10T06:08:04.007Z,983.76
2024-03-10T06:09:04.014Z,983.80
2024-03-10T06:10:03.980Z,983.73
2024-03-10T06:11:04.030Z,983.76
2024-03-10T06:12:04.135Z,983.76
2024-03-10T06:13:03.937Z,983.70
2024-03-10T06:14:03.894Z,983.73
2024-03-10T06:15:03.922Z,983.69
2024-03-10T06:16:03.924Z,983.65
2024-03-10T06:17:03.931Z,983.74
2024-03-10T06:18:03.930Z,983.71
2024-03-10T06:19:03.818Z,983.76
2024-03-10T06:20:03.806Z,983.79
2024-03-10T06:21:04.025Z,983.77
2024-03-10T06:22:03.832Z,983.78
2024-03-10T06:23:03.811Z,983.87
2024-03-10T06:24:03.777Z,983.77
2024-03-10T06:25:03.780Z,983.73
2024-03-10T06:26:03.749Z,983.87
2024-03-10T06:27:03.828Z,983.81
2024-03-10T06:28:03.735Z,983.78
2024-03-10T06:29:03.752Z,983.87
2024-03-10T06:30:03.681Z,983.91
2024-03-10T06:31:03.659Z,983.93
2024-03-10T06:32:03.673Z,983.95
2024-03-10T06:33:03.776Z,983.98
2024-03-10T06:34:03.627Z,984.01
2024-03-10T06:35:03.653Z,984.05
2024-03-10T06:36:03.572Z,984.04
2024-03-10T06:37:03.596Z,983.95
2024-03-10T06:38:03.624Z,984.08
2024-03-10T06:39:03.581Z,984.13
2024-03-10T06:40:03.551Z,984.06
2024-03-10T06:41:03.551Z,984.08
2024-03-10T06:42:03.495Z,984.05
2024-03-10T06:43:03.500Z,984.08
2024-03-10T06:44:03.549Z,984.16
2024-03-10T06:45:04.432Z,984.15
2024-03-10T06:46:03.492Z,984.15
2024-03-10T06:47:03.508Z,984.20
2024-03-10T06:48:03.435Z,984.29
2024-03-10T06:49:03.435Z,984.29
2024-03-10T06:50:03.448Z,984.22
2024-03-10T06:51:03.447Z,984.22
2024-03-10T06:52:03.378Z,984.21
2024-03-10T06:53:03.368Z,984.21
2024-03-10T06:54:03.387Z,984.21
2024-03-10T06:55:03.375Z,984.22
2024-03-10T06:56:03.381Z,984.21
2024-03-10T06:57:03.387Z,984.28
2024-03-10T06:58:03.374Z,984.27
2024-03-10T06:59:03.344Z,984.28
2024-03-10T07:00:03.519Z,984.35
2024-03-10T07:01:03.359Z,984.34
2024-03-10T07:02:03.329Z,984.39
2024-03-10T07:03:03.375Z,984.27
2024-03-10T07:04:03.245Z,984.32
2024-03-10T07:05:03.281Z,984.28
2024-03-10T07:06:03.247Z,984.20
2024-03-10T07:07:03.370Z,984.13
2024-03-10T07:08:03.224Z,984.24
2024-03-10T07:09:03.173Z,984.22
2024-03-10T07:10:03.170Z,984.17
2024-03-10T07:11:03.197Z,984.26
2024-03-10T07:12:03.302Z,984.25
2024-03-10T07:13:03.113Z,984.29
2024-03-10T07:14:03.144Z,984.25
2024-03-10T07:15:03.075Z,984.21
2024-03-10T07:16:03.078Z,984.24
2024-03-10T07:17:03.176Z,984.22
2024-03-10T07:18:03.107Z,984.25
2024-03-10T07:19:03.032Z,984.29
2024-03-10T07:20:03.126Z,984.31
2024-03-10T07:21:03.007Z,984.33
2024-03-10T07:22:03.086Z,984.36
2024-03-10T07:23:03.090Z,984.32
2024-03-10T07:24:02.960Z,984.35
2024-03-10T07:25:02.955Z,984.33
2024-03-10T07:26:02.965Z,984.30
2024-03-10T07:27:02.961Z,984.32
2024-03-10T07:28:02.949Z,984.30
2024-03-10T07:29:03.018Z,984.18
2024-03-10T07:30:02.892Z,984.14
2024-03-10T07:31:02.867Z,984.18
2024-03-10T07:32:02.994Z,984.14
2024-03-10T07:33:03.016Z,984.09
2024-03-10T07:34:02.881Z,984.12
2024-03-10T07:35:02.881Z,984.07
2024-03-10T07:36:02.845Z,984.10
2024-03-10T07:37:02.813Z,984.09
2024-03-10T07:38:02.916Z,984.01
2024-03-10T07:39:02.778Z,984.03
2024-03-10T07:40:02.770Z,984.02
2024-03-10T07:41:02.810Z,983.96
2024-03-10T07:42:02.758Z,983.94
2024-03-10T07:43:02.739Z,983.97
2024-03-10T07:44:02.745Z,984.00
2024-03-10T07:45:02.756Z,984.06
2024-03-10T07:46:02.695Z,984.04
2024-03-10T07:47:02.737Z,984.04
2024-03-10T07:48:02.738Z,984.07
2024-03-10T07:49:02.664Z,984.06
2024-03-10T07:50:02.795Z,984.04
2024-03-10T07:51:02.641Z,984.12
2024-03-10T07:52:02.599Z,984.09
2024-03-10T07:53:02.594Z,984.06
2024-03-10T07:54:02.577Z,984.03
2024-03-10T07:55:02.576Z,984.02
2024-03-10T07:56:02.627Z,984.13
2024-03-10T07:57:02.530Z,984.04
2024-03-10T07:58:02.624Z,984.07
2024-03-10T07:59:02.680Z,984.15
2024-03-10T08:00:02.696Z,984.03
2024-03-10T08:01:02.612Z,984.08
2024-03-10T08:02:02.520Z,984.07
2024-03-10T08:03:02.615Z,984.03
2024-03-10T08:04:02.875Z,984.02
2024-03-10T08:05:02.591Z,984.04
2024-03-10T08:06:02.465Z,984.18
2024-03-10T08:07:02.494Z,984.14
2024-03-10T08:08:02.432Z,984.21
2024-03-10T08:09:02.381Z,984.18
2024-03-10T08:10:02.487Z,984.20
2024-03-10T08:11:02.578Z,984.25
2024-03-10T08:12:02.507Z,984.26
2024-03-10T08:13:04.551Z,984.27
2024-03-10T08:14:02.350Z,984.21
2024-03-10T08:15:02.342Z,984.28
2024-03-10T08:16:02.325Z,984.22
2024-03-10T08:17:02.351Z,984.22
2024-03-10T08:18:02.311Z,984.24
2024-03-10T08:19:02.235Z,984.29
2024-03-10T08:20:02.278Z,984.31
2024-03-10T08:21:02.310Z,984.33
2024-03-10T08:22:02.237Z,984.23
2024-03-10T08:23:02.273Z,984.21
2024-03-10T08:24:02.177Z,984.18
2024-03-10T08:25:02.226Z,984.18
2024-03-10T08:26:02.264Z,984.10
2024-03-10T08:27:02.162Z,984.13
2024-03-10T08:28:02.181Z,984.14
2024-03-10T08:29:02.132Z,984.06
2024-03-10T08:30:02.122Z,984.12
2024-03-10T08:31:02.119Z,984.13
2024-03-10T08:32:02.129Z,984.16
2024-03-10T08:33:02.166Z,984.04
2024-03-10T08:34:02.094Z,984.11
2024-03-10T08:35:02.280Z,984.09
2024-03-10T08:36:02.452Z,984.09
2024-03-10T08:37:02.113Z,984.08
2024-03-10T08:38:02.181Z,984.06
2024-03-10T08:39:02.056Z,984.06
2024-03-10T08:40:02.140Z,984.05
2024-03-10T08:41:02.045Z,984.09
2024-03-10T08:42:01.983Z,984.08
2024-03-10T08:43:02.035Z,984.08
2024-03-10T08:44:02.071Z,984.08
2024-03-10T08:45:02.036Z,984.06
2024-03-10T08:46:01.909Z,984.00
2024-03-10T08:47:01.987Z,984.00
2024-03-10T08:48:02.042Z,984.11
2024-03-10T08:49:01.870Z,984.09
2024-03-10T08:50:01.936Z,984.14
2024-03-10T08:51:01.829Z,984.07
2024-03-10T08:52:01.843Z,984.15
2024-03-10T08:53:01.927Z,984.14
2024-03-10T08:54:01.820Z,984.17
2024-03-10T08:55:01.821Z,984.09
2024-03-10T08:56:01.843Z,984.06
2024-03-10T08:57:01.768Z,984.11
2024-03-10T08:58:01.772Z,984.07
2024-03-10T08:59:01.759Z,984.08
2024-03-10T09:00:01.734Z,984.12
2024-03-10T09:01:01.760Z,984.16
2024-03-10T09:02:01.713Z,984.10
2024-03-10T09:03:01.719Z,984.10
2024-03-10T09:04:01.714Z,984.12
2024-03-10T09:05:01.918Z,984.06
2024-03-10T09:06:01.650Z,984.09
2024-03-10T09:07:01.658Z,984.08
2024-03-10T09:08:01.681Z,984.10
2024-03-10T09:09:01.610Z,983.99
2024-03-10T09:10:01.675Z,983.96
2024-03-10T09:11:04.648Z,984.00
2024-03-10T09:12:01.786Z,983.97
2024-03-10T09:13:01.561Z,983.97
2024-03-10T09:14:01.607Z,983.97
2024-03-10T09:15:01.539Z,984.00
2024-03-10T09:16:01.649Z,983.89
2024-03-10T09:17:01.543Z,983.90
2024-03-10T09:18:01.675Z,983.88
2024-03-10T09:19:01.471Z,983.82
2024-03-10T09:20:01.731Z,983.74
2024-03-10T09:21:01.455Z,983.72
2024-03-10T09:22:01.454Z,983.71
2024-03-10T09:23:01.548Z,983.75
2024-03-10T09:24:01.443Z,983.75
2024-03-10T09:25:01.401Z,983.72
2024-03-10T09:26:01.397Z,983.71
2024-03-10T09:27:01.394Z,983.74
2024-03-10T09:28:01.376Z,983.67
2024-03-10T09:29:01.424Z,983.63
2024-03-10T09:30:01.346Z,983.71
2024-03-10T09:31:01.307Z,983.69
2024-03-10T09:32:01.329Z,983.76
2024-03-10T09:33:01.381Z,983.69
2024-03-10T09:34:01.352Z,983.60
2024-03-10T09:35:01.306Z,983.68
2024-03-10T09:36:01.268Z,983.58
2024-03-10T09:37:01.246Z,983.69
2024-03-10T09:38:01.254Z,983.55
2024-03-10T09:39:01.242Z,983.63
2024-03-10T09:40:01.242Z,983.64
2024-03-10T09:41:01.783Z,983.62
2024-03-10T09:42:01.188Z,983.60
2024-03-10T09:43:01.264Z,983.56
2024-03-10T09:44:01.243Z,983.53
2024-03-10T09:45:01.165Z,983.52
2024-03-10T09:46:01.147Z,983.44
2024-03-10T09:47:01.198Z,983.37
2024-03-10T09:48:01.198Z,983.35
2024-03-10T09:49:01.100Z,983.24
2024-03-10T09:50:01.159Z,983.19
2024-03-10T09:51:01.076Z,983.15
2024-03-10T09:52:01.046Z,983.03
2024-03-10T09:53:01.197Z,983.03
2024-03-10T09:54:01.031Z,983.04
2024-03-10T09:55:01.059Z,982.96
2024-03-10T09:56:01.034Z,983.06
2024-03-10T09:57:00.997Z,983.15
2024-03-10T09:58:00.991Z,983.15
2024-03-10T09:59:00.982Z,983.20
2024-03-10T10:00:00.932Z,983.12
2024-03-10T10:01:00.936Z,983.10
2024-03-10T10:02:00.959Z,983.14
2024-03-10T10:03:00.935Z,983.12
2024-03-10T10:04:00.902Z,983.16
2024-03-10T10:05:00.919Z,983.20
2024-03-10T10:06:00.881Z,983.19
2024-03-10T10:07:00.880Z,983.21
2024-03-10T10:08:00.899Z,983.12
2024-03-10T10:09:00.836Z,983.06
2024-03-10T10:10:00.896Z,983.12
2024-03-10T10:11:00.864Z,983.13
2024-03-10T10:12:00.993Z,983.19
2024-03-10T10:13:00.780Z,983.16
2024-03-10T10:14:00.797Z,983.19
2024-03-10T10:15:00.821Z,983.23
2024-03-10T10:16:00.820Z,983.10
2024-03-10T10:17:00.885Z,983.07
2024-03-10T10:18:00.764Z,983.16
2024-03-10T10:19:00.735Z,983.17
2024-03-10T10:20:00.765Z,983.16
2024-03-10T10:21:00.668Z,983.18
2024-03-10T10:22:00.673Z,983.24
2024-03-10T10:23:00.679Z,983.24
2024-03-10T10:24:00.651Z,983.20
2024-03-10T10:25:00.649Z,983.21
2024-03-10T10:26:00.624Z,983.28
2024-03-10T10:27:00.867Z,983.29
2024-03-10T10:28:00.624Z,983.29
2024-03-10T10:29:00.643Z,983.34
2024-03-10T10:30:00.584Z,983.27
2024-03-10T10:31:00.546Z,983.30
2024-03-10T10:32:00.707Z,983.22
2024-03-10T10:33:00.598Z,983.24
2024-03-10T10:34:00.523Z,983.34
2024-03-10T10:35:00.552Z,983.38
2024-03-10T10:36:00.503Z,983.37
2024-03-10T10:37:00.460Z,983.41
2024-03-10T10:38:00.533Z,983.45
2024-03-10T10:39:00.463Z,983.36
2024-03-10T10:40:00.494Z,983.42
2024-03-10T10:41:00.426Z,983.37
2024-03-10T10:42:02.501Z,983.41
2024-03-10T10:43:05.178Z,983.43
2024-03-10T10:44:01.435Z,983.45
2024-03-10T10:45:00.405Z,983.35
2024-03-10T10:46:00.394Z,983.41
2024-03-10T10:47:00.417Z,983.48
2024-03-10T10:48:00.391Z,983.39
2024-03-10T10:49:00.389Z,983.41
2024-03-10T10:50:00.410Z,983.39
2024-03-10T10:51:00.309Z,983.37
2024-03-10T10:52:00.272Z,983.42
2024-03-10T10:53:00.393Z,983.37
2024-03-10T10:54:00.251Z,983.40
2024-03-10T10:55:00.285Z,983.33
2024-03-10T10:56:00.330Z,983.34
2024-03-10T10:57:00.246Z,983.36
2024-03-10T10:58:00.199Z,983.35
2024-03-10T10:59:00.244Z,983.40
2024-03-10T11:00:00.243Z,983.44
2024-03-10T11:01:00.208Z,983.41
2024-03-10T11:02:00.174Z,983.38
2024-03-10T11:03:00.234Z,983.34
2024-03-10T11:04:00.160Z,983.28
2024-03-10T11:05:00.201Z,983.23
2024-03-10T11:06:00.134Z,983.13
2024-03-10T11:07:00.117Z,983.12
2024-03-10T11:08:00.119Z,983.13
2024-03-10T11:09:00.055Z,983.03
2024-03-10T11:10:00.133Z,983.05
2024-03-10T11:11:00.137Z,983.09
2024-03-10T11:12:00.333Z,983.08
2024-03-10T11:13:00.001Z,983.10
2024-03-10T11:13:59.991Z,983.12
2024-03-10T11:15:00.062Z,983.16
2024-03-10T11:15:59.957Z,983.16
2024-03-10T11:16:59.990Z,983.16
2024-03-10T11:18:00.007Z,983.18
2024-03-10T11:18:59.909Z,983.18
2024-03-10T11:20:00.025Z,983.18
2024-03-10T11:20:59.962Z,983.16
2024-03-10T11:21:59.911Z,983.17
2024-03-10T11:22:59.901Z,983.15
2024-03-10T11:23:59.842Z,983.12
2024-03-10T11:24:59.861Z,983.12
2024-03-10T11:25:59.899Z,983.12
2024-03-10T11:26:59.846Z,983.19
2024-03-10T11:27:59.810Z,983.19
2024-03-10T11:28:59.957Z,983.20
2024-03-10T11:29:59.786Z,983.19
2024-03-10T11:30:59.794Z,983.19
2024-03-10T11:31:59.868Z,983.17
2024-03-10T11:32:59.772Z,983.16
2024-03-10T11:33:59.785Z,983.11
2024-03-10T11:34:59.726Z,983.11
2024-03-10T11:35:59.732Z,983.21
2024-03-10T11:36:59.698Z,983.25
2024-03-10T11:37:59.740Z,983.23
2024-03-10T11:38:59.716Z,983.19
2024-03-10T11:39:59.752Z,983.22
2024-03-10T11:40:59.660Z,983.18
2024-03-10T11:41:59.640Z,983.23
2024-03-10T11:42:59.653Z,983.24
2024-03-10T11:43:59.688Z,983.21
2024-03-10T11:44:59.587Z,983.12
2024-03-10T11:45:59.588Z,983.22
2024-03-10T11:46:59.625Z,983.18
2024-03-10T11:47:59.640Z,983.16
2024-03-10T11:48:59.581Z,983.20
2024-03-10T11:49:59.557Z,983.06
2024-03-10T11:50:59.496Z,983.13
2024-03-10T11:51:59.548Z,983.15
2024-03-10T11:52:59.550Z,983.18
2024-03-10T11:53:59.473Z,983.14
2024-03-10T11:54:59.557Z,983.16
2024-03-10T11:55:59.486Z,983.16
2024-03-10T11:56:59.444Z,983.15
2024-03-10T11:57:59.448Z,983.16
2024-03-10T11:58:59.731Z,983.17
2024-03-10T11:59:59.439Z,983.14
2024-03-10T12:00:59.405Z,983.15
2024-03-10T12:01:59.399Z,983.14
2024-03-10T12:02:59.383Z,983.08
2024-03-10T12:03:59.346Z,983.02
2024-03-10T12:04:59.330Z,983.07
2024-03-10T12:05:59.385Z,983.09
2024-03-10T12:06:59.342Z,983.14
2024-03-10T12:07:59.870Z,983.14
2024-03-10T12:08:59.268Z,983.13
2024-03-10T12:09:59.272Z,983.09
2024-03-10T12:10:59.427Z,983.06
2024-03-10T12:11:59.329Z,983.09
2024-03-10T12:12:59.269Z,983.04
2024-03-10T12:13:59.232Z,983.06
2024-03-10T12:14:59.224Z,983.06
2024-03-10T12:15:59.229Z,983.02
2024-03-10T12:16:59.211Z,983.04
2024-03-10T12:17:59.208Z,982.92
2024-03-10T12:18:59.180Z,982.93
2024-03-10T12:19:59.184Z,982.92
2024-03-10T12:20:59.166Z,983.03
2024-03-10T12:21:59.205Z,982.91
2024-03-10T12:22:59.170Z,982.90
2024-03-10T12:23:59.105Z,982.86
2024-03-10T12:24:59.076Z,982.83
2024-03-10T12:25:59.110Z,982.88
2024-03-10T12:26:59.088Z,982.92
2024-03-10T12:27:59.036Z,982.91